aviador You're here:

ZSSS Decoded Metar

SHANGHAI in CHINA
Report Time2017-05-30 11:00:00
UTC Time2017-05-30 11:13:30
Flight Rules vfr VFR
Wind150° at 8 kt
W.Decomp.*RWY 18: 7.3 kt HW 3.4 kt LCW
W.Rank150° ranks 2
Current wind is below 150° avg. (8.0)
Visibility9999 m
Phenomena:N/A
Clouds:N/A
Expected CloudBase > 2,400 ft AGL from Temp-Dew spread
CeilingNone
Temp27°C (ISA +12)
Dew Point21°C (70% RH)
Heat Index28.9°C
QNH1005 hPa
Density Alt2,011 ft
Elevation23 ft
Report Wrong Elevation
Raw Report
ZSSS 301100Z 15004MPS CAVOK 27/21 Q1005 NOSIG=

Extra information for ZSSS:More info

Metar Taf Metar & Taf Last 4 Metars F.Rules Stats Wind Profile Meteogram Temp Stats Airport Information Weather charts Add Link Nearby VenuesMetar ALERT Operation Metar Decoded Social comments